createdAt,value
2019-06-07T00:00:57.751Z,0.80
2019-06-07T00:03:29.550Z,0.80
2019-06-07T00:05:51.743Z,0.97
2019-06-07T00:08:24.901Z,1.00
2019-06-07T00:10:45.715Z,1.40
2019-06-07T00:13:12.907Z,1.20
2019-06-07T00:15:39.683Z,1.40
2019-06-07T00:18:05.699Z,1.20
2019-06-07T00:20:31.747Z,1.13
2019-06-07T00:22:57.770Z,1.30
2019-06-07T00:25:24.659Z,1.63
2019-06-07T00:27:50.846Z,2.00
2019-06-07T00:30:36.205Z,1.80
2019-06-07T00:32:45.124Z,1.33
2019-06-07T00:35:11.907Z,2.27
2019-06-07T00:37:38.644Z,1.97
2019-06-07T00:40:13.975Z,1.60
2019-06-07T00:42:33.160Z,0.90
2019-06-07T00:44:59.187Z,1.43
2019-06-07T00:47:25.860Z,1.30
2019-06-07T00:49:52.140Z,1.52
2019-06-07T00:52:59.363Z,1.10
2019-06-07T00:54:46.105Z,1.17
2019-06-07T00:57:12.555Z,1.10
2019-06-07T00:59:40.055Z,1.20
2019-06-07T01:02:06.081Z,1.40
2019-06-07T01:04:32.123Z,1.43
2019-06-07T01:06:58.137Z,0.87
2019-06-07T01:09:25.509Z,1.00
2019-06-07T01:11:51.903Z,1.10
2019-06-07T01:14:20.307Z,1.30
2019-06-07T01:16:57.580Z,1.13
2019-06-07T01:19:13.871Z,1.10
2019-06-07T01:21:39.910Z,0.87
2019-06-07T01:24:11.921Z,1.10
2019-06-07T01:26:33.963Z,1.00
2019-06-07T01:29:00.003Z,1.27
2019-06-07T01:31:28.507Z,1.10
2019-06-07T01:33:53.947Z,2.00
2019-06-07T01:36:21.635Z,2.33
2019-06-07T01:38:47.895Z,2.37
2019-06-07T01:41:13.936Z,2.90
2019-06-07T01:43:39.952Z,2.90
2019-06-07T01:46:05.970Z,2.67
2019-06-07T01:48:48.543Z,2.80
2019-06-07T01:50:59.936Z,2.40
2019-06-07T01:53:28.488Z,2.23
2019-06-07T01:55:53.875Z,1.80
2019-06-07T01:58:21.772Z,2.00
2019-06-07T02:00:47.828Z,2.07
2019-06-07T02:03:13.837Z,2.03
2019-06-07T02:05:39.867Z,2.50
2019-06-07T02:08:05.886Z,2.70
2019-06-07T02:10:33.590Z,2.73
2019-06-07T02:12:59.875Z,2.40
2019-06-07T02:15:30.530Z,2.10
2019-06-07T02:17:53.828Z,2.50
2019-06-07T02:20:20.427Z,2.40
2019-06-07T02:22:47.111Z,2.70
2019-06-07T02:25:38.292Z,3.00
2019-06-07T02:27:41.382Z,3.23
2019-06-07T02:30:36.151Z,3.60
2019-06-07T02:32:37.097Z,3.83
2019-06-07T02:35:04.162Z,4.17
2019-06-07T02:37:35.851Z,3.37
2019-06-07T02:39:58.133Z,2.67
2019-06-07T02:42:27.446Z,2.53
2019-06-07T02:45:11.947Z,2.30
2019-06-07T02:47:38.564Z,3.00
2019-06-07T02:50:10.032Z,3.00
2019-06-07T02:52:40.322Z,3.30
2019-06-07T02:55:04.559Z,3.87
2019-06-07T02:57:36.939Z,3.70
2019-06-07T03:00:16.607Z,3.80
2019-06-07T03:02:32.820Z,3.80
2019-06-07T03:04:55.354Z,3.40
2019-06-07T03:07:21.577Z,2.83
2019-06-07T03:09:47.711Z,2.53
2019-06-07T03:12:17.535Z,3.27
2019-06-07T03:14:43.566Z,2.90
2019-06-07T03:17:21.534Z,2.50
2019-06-07T03:19:51.684Z,2.80
2019-06-07T03:22:17.694Z,2.87
2019-06-07T03:24:44.135Z,3.10
2019-06-07T03:27:34.280Z,2.30
2019-06-07T03:29:41.215Z,2.72
2019-06-07T03:32:06.496Z,4.13
2019-06-07T03:34:38.616Z,4.40
2019-06-07T03:37:00.437Z,4.33
2019-06-07T03:39:28.431Z,4.07
2019-06-07T03:42:05.635Z,3.80
2019-06-07T03:44:22.346Z,3.77
2019-06-07T03:46:48.388Z,3.77
2019-06-07T03:49:14.403Z,3.07
2019-06-07T03:51:40.991Z,3.27
2019-06-07T03:54:07.173Z,3.27
2019-06-07T03:56:33.739Z,2.90
2019-06-07T03:59:01.211Z,3.23
2019-06-07T04:01:28.572Z,2.65
2019-06-07T04:03:55.075Z,1.80
2019-06-07T04:06:21.091Z,1.93
2019-06-07T04:08:47.135Z,2.13
2019-06-07T04:11:13.183Z,2.13
2019-06-07T04:13:42.625Z,2.17
2019-06-07T04:16:08.040Z,2.30
2019-06-07T04:18:36.432Z,2.20
2019-06-07T04:21:02.726Z,3.50
2019-06-07T04:23:31.743Z,3.00
2019-06-07T04:25:57.427Z,3.10
2019-06-07T04:31:12.132Z,2.80
2019-06-07T04:33:41.586Z,2.20
2019-06-07T04:36:06.274Z,2.20
2019-06-07T04:38:36.217Z,2.10
2019-06-07T04:41:01.943Z,2.23
2019-06-07T04:43:30.222Z,2.00
2019-06-07T04:45:57.559Z,1.93
2019-06-07T04:48:27.275Z,2.63
2019-06-07T04:50:53.410Z,2.80
2019-06-07T04:53:19.424Z,3.23
2019-06-07T04:55:45.460Z,2.50
2019-06-07T04:58:11.482Z,2.67
2019-06-07T05:00:59.168Z,2.23
2019-06-07T05:03:05.423Z,1.63
2019-06-07T05:05:34.347Z,1.93
2019-06-07T05:08:07.165Z,1.27
2019-06-07T05:10:30.576Z,1.20
2019-06-07T05:12:56.542Z,1.43
2019-06-07T05:15:22.606Z,1.17
2019-06-07T05:17:49.303Z,1.27
2019-06-07T05:20:16.229Z,1.00
2019-06-07T05:22:45.094Z,0.82
2019-06-07T05:25:10.303Z,1.13
2019-06-07T05:27:38.678Z,1.53
2019-06-07T05:32:34.965Z,1.57
2019-06-07T05:35:01.602Z,1.17
2019-06-07T05:37:27.858Z,1.10
2019-06-07T05:39:53.975Z,1.07
2019-06-07T05:42:19.996Z,1.10
2019-06-07T05:44:46.071Z,1.20
2019-06-07T05:47:12.155Z,1.00
2019-06-07T05:49:41.634Z,0.73
2019-06-07T05:52:09.063Z,0.97
2019-06-07T05:54:36.116Z,0.70
2019-06-07T05:57:02.632Z,0.80
2019-06-07T05:59:28.656Z,1.10
2019-06-07T06:02:02.888Z,0.80
2019-06-07T06:04:22.629Z,0.80
2019-06-07T06:06:48.744Z,0.90
2019-06-07T06:09:14.791Z,0.90
2019-06-07T06:11:49.455Z,1.20
2019-06-07T06:14:08.758Z,0.87
2019-06-07T06:16:34.789Z,0.80
2019-06-07T06:19:00.811Z,0.90
2019-06-07T06:21:46.720Z,0.87
2019-06-07T06:24:12.756Z,0.90
2019-06-07T06:26:47.704Z,1.00
2019-06-07T06:29:06.699Z,0.80
2019-06-07T06:31:32.726Z,0.70
2019-06-07T06:33:58.743Z,1.10
2019-06-07T06:36:24.768Z,1.10
2019-06-07T06:38:51.529Z,0.90
2019-06-07T06:41:17.818Z,0.80
2019-06-07T06:43:46.759Z,0.80
2019-06-07T06:46:11.856Z,0.83
2019-06-07T06:48:40.833Z,1.03
2019-06-07T06:51:05.833Z,1.00
2019-06-07T06:53:32.247Z,0.90
2019-06-07T06:55:58.274Z,1.00
2019-06-07T06:58:24.287Z,0.80
2019-06-07T07:01:04.813Z,1.00
2019-06-07T07:03:55.999Z,1.20
2019-06-07T07:05:50.852Z,0.80
2019-06-07T07:08:17.258Z,0.80
2019-06-07T07:10:45.969Z,0.97
2019-06-07T07:13:12.731Z,0.90
2019-06-07T07:15:38.969Z,0.80
2019-06-07T07:18:08.725Z,0.90
2019-06-07T07:20:32.929Z,0.90
2019-06-07T07:22:59.062Z,0.80
2019-06-07T07:25:25.230Z,0.87
2019-06-07T07:27:53.823Z,0.80
2019-06-07T07:30:41.933Z,1.00
2019-06-07T07:33:08.841Z,0.80
2019-06-07T07:35:34.994Z,0.80
2019-06-07T07:38:01.003Z,0.87
2019-06-07T07:42:56.660Z,0.90
2019-06-07T07:45:22.919Z,0.77
2019-06-07T07:48:05.496Z,0.70
2019-06-07T07:50:16.984Z,0.90
2019-06-07T07:52:45.146Z,0.77
2019-06-07T07:55:11.159Z,0.70
2019-06-07T07:57:37.271Z,0.97
2019-06-07T08:00:48.199Z,0.73
2019-06-07T08:02:33.722Z,0.70
2019-06-07T08:05:20.996Z,0.60
2019-06-07T08:07:28.123Z,0.60
2019-06-07T08:09:59.496Z,0.60
2019-06-07T08:12:22.373Z,0.70
2019-06-07T08:14:50.273Z,0.80
2019-06-07T08:17:16.306Z,0.73
2019-06-07T08:19:42.351Z,0.70
2019-06-07T08:22:08.367Z,0.60
2019-06-07T08:24:34.367Z,0.77
2019-06-07T08:27:24.353Z,0.70
2019-06-07T08:29:43.866Z,0.60
2019-06-07T08:31:58.090Z,0.80
2019-06-07T08:34:24.189Z,0.63
2019-06-07T08:36:52.238Z,0.87
2019-06-07T08:39:18.141Z,0.80
2019-06-07T08:41:54.022Z,1.13
2019-06-07T08:44:23.197Z,0.70
2019-06-07T08:46:40.115Z,0.60
2019-06-07T08:49:06.126Z,0.60
2019-06-07T08:51:32.255Z,0.70
2019-06-07T08:54:20.611Z,0.70
2019-06-07T08:56:26.303Z,0.70
2019-06-07T08:58:55.010Z,0.80
2019-06-07T09:01:20.246Z,0.80
2019-06-07T09:03:46.261Z,0.70
2019-06-07T09:07:00.913Z,0.67
2019-06-07T09:08:40.219Z,0.60
2019-06-07T09:11:10.883Z,0.70
2019-06-07T09:13:34.176Z,0.90
2019-06-07T09:16:04.915Z,0.70
2019-06-07T09:18:41.885Z,0.63
2019-06-07T09:20:58.212Z,0.80
2019-06-07T09:23:23.969Z,0.40
2019-06-07T09:26:02.552Z,0.90
2019-06-07T09:28:20.054Z,1.13
2019-06-07T09:30:46.350Z,0.83
2019-06-07T09:33:12.469Z,1.00
2019-06-07T09:35:38.901Z,0.73
2019-06-07T09:38:22.948Z,0.90
2019-06-07T09:40:32.814Z,0.70
2019-06-07T09:43:46.713Z,0.67
2019-06-07T09:45:26.769Z,0.60
2019-06-07T09:47:52.827Z,0.53
2019-06-07T09:50:18.839Z,1.00
2019-06-07T09:52:57.970Z,0.60
2019-06-07T09:55:23.487Z,0.67
2019-06-07T09:57:40.731Z,0.70
2019-06-07T10:00:39.124Z,0.80
2019-06-07T10:02:40.664Z,0.90
2019-06-07T10:05:13.000Z,0.60
2019-06-07T10:07:34.818Z,0.60
2019-06-07T10:12:28.771Z,0.70
2019-06-07T10:14:54.779Z,0.80
2019-06-07T10:17:20.799Z,0.67
2019-06-07T10:19:46.807Z,0.50
2019-06-07T10:22:12.834Z,0.50
2019-06-07T10:24:38.842Z,0.70
2019-06-07T10:27:06.012Z,0.60
2019-06-07T10:29:32.118Z,0.50
2019-06-07T10:31:58.178Z,0.50
2019-06-07T10:34:24.316Z,0.80
2019-06-07T10:36:50.457Z,0.57
2019-06-07T10:39:16.560Z,0.53
2019-06-07T10:41:42.587Z,0.50
2019-06-07T10:44:09.383Z,0.63
2019-06-07T10:46:35.623Z,0.60
2019-06-07T10:49:01.682Z,0.63
2019-06-07T10:51:27.867Z,0.60
2019-06-07T10:53:53.883Z,0.57
2019-06-07T10:56:19.904Z,0.47
2019-06-07T10:58:45.933Z,0.47
2019-06-07T11:01:12.822Z,0.40
2019-06-07T11:03:39.863Z,0.60
2019-06-07T11:06:05.871Z,0.53
2019-06-07T11:08:31.908Z,0.60
2019-06-07T11:10:57.927Z,0.60
2019-06-07T11:13:23.966Z,0.60
2019-06-07T11:15:50.002Z,0.50
2019-06-07T11:18:16.044Z,0.50
2019-06-07T11:20:42.048Z,0.60
2019-06-07T11:23:08.239Z,0.70
2019-06-07T11:25:34.405Z,0.55
2019-06-07T11:28:01.151Z,0.60
2019-06-07T11:30:27.159Z,0.33
2019-06-07T11:32:53.191Z,0.60
2019-06-07T11:35:19.300Z,0.60
2019-06-07T11:37:45.341Z,0.50
2019-06-07T11:40:29.737Z,0.60
2019-06-07T11:42:42.575Z,0.40
2019-06-07T11:45:10.567Z,0.40
2019-06-07T11:47:36.919Z,0.45
2019-06-07T11:50:04.838Z,0.50
2019-06-07T11:52:30.868Z,0.60
2019-06-07T11:54:56.872Z,0.60
2019-06-07T11:57:22.909Z,0.50
2019-06-07T11:59:48.939Z,0.37
2019-06-07T12:02:15.518Z,0.30
2019-06-07T12:04:41.682Z,0.40
2019-06-07T12:07:10.381Z,0.60
2019-06-07T12:09:35.626Z,0.50
2019-06-07T12:12:01.653Z,0.45
2019-06-07T12:14:27.669Z,0.82
2019-06-07T12:16:53.699Z,1.00
2019-06-07T12:19:19.834Z,0.60
2019-06-07T12:21:46.136Z,0.57
2019-06-07T12:24:12.230Z,0.60
2019-06-07T12:26:38.267Z,0.57
2019-06-07T12:29:04.300Z,0.60
2019-06-07T12:31:30.344Z,0.50
2019-06-07T12:33:56.376Z,1.02
2019-06-07T12:36:22.387Z,1.10
2019-06-07T12:38:48.446Z,0.95
2019-06-07T12:41:14.467Z,0.68
2019-06-07T12:43:40.610Z,0.90
2019-06-07T12:46:06.615Z,0.90
2019-06-07T12:48:32.663Z,1.00
2019-06-07T12:50:58.795Z,0.72
2019-06-07T12:53:27.966Z,0.90
2019-06-07T12:55:52.765Z,0.70
2019-06-07T12:58:27.199Z,1.55
2019-06-07T13:00:46.813Z,1.40
2019-06-07T13:03:14.195Z,1.20
2019-06-07T13:05:40.493Z,0.90
2019-06-07T13:08:06.559Z,1.22
2019-06-07T13:10:32.585Z,0.95
2019-06-07T13:12:58.646Z,1.15
2019-06-07T13:15:26.027Z,0.70
2019-06-07T13:17:52.371Z,0.80
2019-06-07T13:20:20.540Z,0.80
2019-06-07T13:22:46.697Z,0.90
2019-06-07T13:25:14.079Z,0.72
2019-06-07T13:27:40.135Z,0.82
2019-06-07T13:30:28.993Z,0.80
2019-06-07T13:32:55.175Z,0.90
2019-06-07T13:35:23.384Z,0.80
2019-06-07T13:37:49.139Z,0.98
2019-06-07T13:40:16.383Z,1.00
2019-06-07T13:42:42.704Z,0.90
2019-06-07T13:45:11.030Z,0.93
2019-06-07T13:47:37.068Z,1.20
2019-06-07T13:50:05.211Z,1.07
2019-06-07T13:52:31.220Z,1.20
2019-06-07T13:54:57.253Z,1.00
2019-06-07T13:57:24.382Z,1.00
2019-06-07T13:59:50.804Z,1.00
2019-06-07T14:02:16.910Z,0.70
2019-06-07T14:04:42.923Z,0.90
2019-06-07T14:07:09.060Z,1.05
2019-06-07T14:09:35.155Z,1.20
2019-06-07T14:12:22.236Z,2.10
2019-06-07T14:14:48.907Z,2.25
2019-06-07T14:17:14.923Z,1.67
2019-06-07T14:19:40.947Z,1.70
2019-06-07T14:22:06.982Z,2.00
2019-06-07T14:24:33.006Z,1.62
2019-06-07T14:27:03.907Z,2.00
2019-06-07T14:29:30.331Z,1.50
2019-06-07T14:31:56.735Z,1.70
2019-06-07T14:34:24.253Z,1.67
2019-06-07T14:36:50.746Z,1.42
2019-06-07T14:39:17.139Z,1.27
2019-06-07T14:42:09.487Z,2.70
2019-06-07T14:44:31.758Z,1.85
2019-06-07T14:46:58.279Z,2.00
2019-06-07T14:49:26.327Z,1.30
2019-06-07T14:51:52.959Z,1.50
2019-06-07T14:54:19.451Z,1.20
2019-06-07T14:56:45.872Z,1.10
2019-06-07T14:59:12.339Z,1.17
2019-06-07T15:01:40.726Z,0.80
2019-06-07T15:04:07.040Z,0.60
2019-06-07T15:06:34.873Z,0.73
2019-06-07T15:09:21.338Z,0.53
2019-06-07T15:11:47.749Z,0.67
2019-06-07T15:14:16.769Z,0.40
2019-06-07T15:17:08.883Z,0.40
2019-06-07T15:19:36.401Z,0.80
2019-06-07T15:22:03.099Z,1.03
2019-06-07T15:24:33.960Z,0.67
2019-06-07T15:26:57.770Z,0.60
2019-06-07T15:29:24.158Z,0.73
2019-06-07T15:31:50.670Z,0.50
2019-06-07T15:34:17.054Z,0.60
2019-06-07T15:36:43.447Z,0.60
2019-06-07T15:39:09.830Z,0.80
2019-06-07T15:41:37.365Z,0.63
2019-06-07T15:44:04.023Z,0.60
2019-06-07T15:46:31.514Z,0.50
2019-06-07T15:48:58.128Z,0.80
2019-06-07T15:51:24.544Z,0.70
2019-06-07T15:53:50.932Z,0.53
2019-06-07T15:56:17.431Z,0.50
2019-06-07T15:58:43.819Z,0.40
2019-06-07T16:01:10.244Z,0.60
2019-06-07T16:03:37.928Z,0.70
2019-06-07T16:06:04.572Z,0.60
2019-06-07T16:08:32.206Z,0.50
2019-06-07T16:10:58.913Z,0.67
2019-06-07T16:13:25.362Z,0.50
2019-06-07T16:15:51.758Z,0.50
2019-06-07T16:18:18.168Z,0.60
2019-06-07T16:20:44.587Z,0.60
2019-06-07T16:23:11.012Z,0.63
2019-06-07T16:25:37.945Z,0.50
2019-06-07T16:28:04.392Z,0.50
2019-06-07T16:30:30.778Z,0.67
2019-06-07T16:32:57.182Z,0.60
2019-06-07T16:35:23.585Z,0.40
2019-06-07T16:37:52.291Z,0.60
2019-06-07T16:40:18.314Z,0.60
2019-06-07T16:42:45.210Z,0.50
2019-06-07T16:45:12.431Z,0.40
2019-06-07T16:47:40.658Z,0.40
2019-06-07T16:50:07.823Z,0.50
2019-06-07T16:52:34.214Z,0.50
2019-06-07T16:55:00.628Z,0.60
2019-06-07T16:57:27.031Z,0.53
2019-06-07T16:59:53.411Z,0.30
2019-06-07T17:02:19.843Z,0.40
2019-06-07T17:04:46.227Z,0.40
2019-06-07T17:07:12.749Z,0.40
2019-06-07T17:09:40.049Z,0.70
2019-06-07T17:12:06.791Z,0.60
2019-06-07T17:14:33.170Z,0.30
2019-06-07T17:16:59.583Z,0.40
2019-06-07T17:19:25.972Z,0.50
2019-06-07T17:21:52.375Z,0.30
2019-06-07T17:24:18.754Z,0.30
2019-06-07T17:26:45.522Z,0.40
2019-06-07T17:29:11.980Z,0.50
2019-06-07T17:31:39.758Z,0.40
2019-06-07T17:34:06.267Z,0.50
2019-06-07T17:36:32.651Z,0.50
2019-06-07T17:38:59.064Z,0.50
2019-06-07T17:41:25.448Z,0.72
2019-06-07T17:43:59.754Z,0.50
2019-06-07T17:46:20.127Z,0.80
2019-06-07T17:48:47.539Z,0.83
2019-06-07T17:51:14.041Z,0.57
2019-06-07T17:53:41.733Z,0.60
2019-06-07T17:56:28.203Z,0.60
2019-06-07T17:58:54.635Z,0.53
2019-06-07T18:01:21.020Z,0.40
2019-06-07T18:03:47.445Z,0.40
2019-06-07T18:06:14.134Z,0.87
2019-06-07T18:08:40.583Z,1.10
2019-06-07T18:11:07.019Z,0.83
2019-06-07T18:13:33.419Z,0.60
2019-06-07T18:15:59.946Z,0.90
2019-06-07T18:18:26.508Z,0.60
2019-06-07T18:20:53.476Z,0.87
2019-06-07T18:23:20.011Z,1.00
2019-06-07T18:25:46.523Z,1.20
2019-06-07T18:28:13.016Z,2.47
2019-06-07T18:30:39.504Z,3.63
2019-06-07T18:33:06.028Z,2.43
2019-06-07T18:35:32.536Z,2.40
2019-06-07T18:37:59.327Z,1.93
2019-06-07T18:40:25.828Z,1.20
2019-06-07T18:42:53.236Z,0.80
2019-06-07T18:45:19.726Z,1.10
2019-06-07T18:47:47.805Z,1.27
2019-06-07T18:50:15.317Z,0.83
2019-06-07T18:52:43.119Z,0.70
2019-06-07T18:55:09.825Z,0.50
2019-06-07T18:57:36.206Z,1.00
2019-06-07T19:00:13.591Z,0.97
2019-06-07T19:02:40.031Z,0.60
2019-06-07T19:05:07.711Z,1.10
2019-06-07T19:07:34.419Z,1.00
2019-06-07T19:10:00.806Z,1.07
2019-06-07T19:12:27.187Z,0.97
2019-06-07T19:14:53.567Z,1.30
2019-06-07T19:17:19.969Z,0.90
2019-06-07T19:19:46.357Z,0.70
2019-06-07T19:22:12.751Z,1.10
2019-06-07T19:24:39.206Z,0.80
2019-06-07T19:27:05.595Z,0.50
